Centrahoma, Oklahoma
Current Conditions -  °F | °C
As of 5:15 AM on Sunday 23 Nov 2014 (Local Time) from KAQR Reporting Station
Overcast Overcast  
Wind Chill: 57°   Ceiling: 800
Heat Index: 57°   Visibility: 10mi
Dew Point: 57°   Wind: 7mph
Humidity: 100%   Direction: 170°S
Pressure: 29.6"   Gusts: NA
Location:  34.61°N, 96.35°W
Report Text: KAQR 231115Z AUTO 17006KT 10SM BKN008 OVC015 14/14 A2960 RMK AO2
Loading
Personal Weather Stations






























Interactive Weather Map New forecast layout! Learn more

10-Day Weather Forecast

Advertisements
Track Severe Weather on mobile